sensor_id;sensor_type;location;lat;lon;timestamp;P1;durP1;ratioP1;P2;durP2;ratioP2
69170;SDS011;56279;47.902;12.308;2022-12-11T00:00:08;32.97;;;14.32;;
69170;SDS011;56279;47.902;12.308;2022-12-11T00:02:11;34.40;;;14.45;;
69170;SDS011;56279;47.902;12.308;2022-12-11T00:04:12;27.48;;;12.73;;
69170;SDS011;56279;47.902;12.308;2022-12-11T00:06:15;32.97;;;13.18;;
69170;SDS011;56279;47.902;12.308;2022-12-11T00:08:18;34.37;;;15.03;;
69170;SDS011;56279;47.902;12.308;2022-12-11T00:10:19;30.52;;;12.20;;
69170;SDS011;56279;47.902;12.308;2022-12-11T00:12:20;33.55;;;13.68;;
69170;SDS011;56279;47.902;12.308;2022-12-11T00:14:22;30.73;;;14.25;;
69170;SDS011;56279;47.902;12.308;2022-12-11T00:16:23;29.50;;;12.60;;
69170;SDS011;56279;47.902;12.308;2022-12-11T00:18:24;32.97;;;13.53;;
69170;SDS011;56279;47.902;12.308;2022-12-11T00:20:26;33.60;;;13.48;;
69170;SDS011;56279;47.902;12.308;2022-12-11T00:22:28;34.50;;;13.77;;
69170;SDS011;56279;47.902;12.308;2022-12-11T00:24:31;35.85;;;14.15;;
69170;SDS011;56279;47.902;12.308;2022-12-11T00:26:33;32.80;;;13.48;;
69170;SDS011;56279;47.902;12.308;2022-12-11T00:28:34;25.97;;;12.67;;
69170;SDS011;56279;47.902;12.308;2022-12-11T00:30:39;36.60;;;15.25;;
69170;SDS011;56279;47.902;12.308;2022-12-11T00:32:42;32.42;;;14.15;;
69170;SDS011;56279;47.902;12.308;2022-12-11T00:34:43;32.75;;;13.20;;
69170;SDS011;56279;47.902;12.308;2022-12-11T00:36:45;34.80;;;13.45;;
69170;SDS011;56279;47.902;12.308;2022-12-11T00:38:46;34.47;;;14.27;;
69170;SDS011;56279;47.902;12.308;2022-12-11T00:40:48;33.30;;;12.98;;
69170;SDS011;56279;47.902;12.308;2022-12-11T00:42:50;31.42;;;13.88;;
69170;SDS011;56279;47.902;12.308;2022-12-11T00:44:52;27.92;;;12.32;;
69170;SDS011;56279;47.902;12.308;2022-12-11T00:46:54;29.05;;;12.48;;
69170;SDS011;56279;47.902;12.308;2022-12-11T00:48:56;29.33;;;12.27;;
69170;SDS011;56279;47.902;12.308;2022-12-11T00:50:57;30.13;;;13.40;;
69170;SDS011;56279;47.902;12.308;2022-12-11T00:52:59;33.72;;;13.48;;
69170;SDS011;56279;47.902;12.308;2022-12-11T00:55:00;29.70;;;12.93;;
69170;SDS011;56279;47.902;12.308;2022-12-11T00:57:02;28.08;;;12.23;;
69170;SDS011;56279;47.902;12.308;2022-12-11T00:59:03;26.80;;;12.10;;
69170;SDS011;56279;47.902;12.308;2022-12-11T01:01:06;28.13;;;12.63;;
69170;SDS011;56279;47.902;12.308;2022-12-11T01:03:10;25.95;;;12.27;;
69170;SDS011;56279;47.902;12.308;2022-12-11T01:05:13;27.17;;;11.52;;
69170;SDS011;56279;47.902;12.308;2022-12-11T01:07:15;34.67;;;13.13;;
69170;SDS011;56279;47.902;12.308;2022-12-11T01:09:16;27.80;;;11.57;;
69170;SDS011;56279;47.902;12.308;2022-12-11T01:11:36;22.17;;;10.25;;
69170;SDS011;56279;47.902;12.308;2022-12-11T01:13:38;29.92;;;13.02;;
69170;SDS011;56279;47.902;12.308;2022-12-11T01:15:41;23.55;;;9.60;;
69170;SDS011;56279;47.902;12.308;2022-12-11T01:17:44;29.52;;;12.02;;
69170;SDS011;56279;47.902;12.308;2022-12-11T01:19:45;27.50;;;11.57;;
69170;SDS011;56279;47.902;12.308;2022-12-11T01:21:46;25.17;;;11.00;;
69170;SDS011;56279;47.902;12.308;2022-12-11T01:23:51;28.60;;;12.45;;
69170;SDS011;56279;47.902;12.308;2022-12-11T01:25:52;28.00;;;11.77;;
69170;SDS011;56279;47.902;12.308;2022-12-11T01:27:54;26.27;;;11.50;;
69170;SDS011;56279;47.902;12.308;2022-12-11T01:29:56;27.40;;;12.33;;
69170;SDS011;56279;47.902;12.308;2022-12-11T01:31:57;25.75;;;11.07;;
69170;SDS011;56279;47.902;12.308;2022-12-11T01:33:58;29.60;;;11.98;;
69170;SDS011;56279;47.902;12.308;2022-12-11T01:35:59;26.27;;;11.18;;
69170;SDS011;56279;47.902;12.308;2022-12-11T01:38:00;32.92;;;13.00;;
69170;SDS011;56279;47.902;12.308;2022-12-11T01:40:03;25.97;;;11.57;;
69170;SDS011;56279;47.902;12.308;2022-12-11T01:42:09;23.13;;;10.40;;
69170;SDS011;56279;47.902;12.308;2022-12-11T01:46:20;26.40;;;12.32;;
69170;SDS011;56279;47.902;12.308;2022-12-11T01:48:21;27.58;;;11.10;;
69170;SDS011;56279;47.902;12.308;2022-12-11T01:50:26;21.57;;;10.93;;
69170;SDS011;56279;47.902;12.308;2022-12-11T01:52:30;22.60;;;10.93;;
69170;SDS011;56279;47.902;12.308;2022-12-11T01:54:31;27.85;;;11.95;;
69170;SDS011;56279;47.902;12.308;2022-12-11T01:56:34;26.52;;;10.70;;
69170;SDS011;56279;47.902;12.308;2022-12-11T01:58:39;31.10;;;12.73;;
69170;SDS011;56279;47.902;12.308;2022-12-11T02:00:46;24.67;;;10.53;;
69170;SDS011;56279;47.902;12.308;2022-12-11T02:02:47;27.40;;;11.40;;
69170;SDS011;56279;47.902;12.308;2022-12-11T02:04:48;28.65;;;11.20;;
69170;SDS011;56279;47.902;12.308;2022-12-11T02:06:54;24.13;;;10.57;;
69170;SDS011;56279;47.902;12.308;2022-12-11T02:08:56;26.35;;;11.27;;
69170;SDS011;56279;47.902;12.308;2022-12-11T02:11:09;23.60;;;11.77;;
69170;SDS011;56279;47.902;12.308;2022-12-11T02:13:26;21.77;;;9.38;;
69170;SDS011;56279;47.902;12.308;2022-12-11T02:15:39;24.85;;;10.77;;
69170;SDS011;56279;47.902;12.308;2022-12-11T02:27:22;26.52;;;11.95;;
69170;SDS011;56279;47.902;12.308;2022-12-11T02:29:33;28.20;;;11.18;;
69170;SDS011;56279;47.902;12.308;2022-12-11T02:31:43;29.58;;;12.18;;
69170;SDS011;56279;47.902;12.308;2022-12-11T02:35:54;26.85;;;11.63;;
69170;SDS011;56279;47.902;12.308;2022-12-11T02:37:58;29.45;;;12.85;;
69170;SDS011;56279;47.902;12.308;2022-12-11T02:40:08;29.02;;;12.13;;
69170;SDS011;56279;47.902;12.308;2022-12-11T02:42:12;28.90;;;11.88;;
69170;SDS011;56279;47.902;12.308;2022-12-11T02:44:20;28.10;;;12.03;;
69170;SDS011;56279;47.902;12.308;2022-12-11T02:46:24;29.50;;;11.10;;
69170;SDS011;56279;47.902;12.308;2022-12-11T02:48:26;22.27;;;10.57;;
69170;SDS011;56279;47.902;12.308;2022-12-11T02:50:28;26.13;;;11.27;;
69170;SDS011;56279;47.902;12.308;2022-12-11T02:52:30;29.02;;;14.23;;
69170;SDS011;56279;47.902;12.308;2022-12-11T02:54:34;34.43;;;12.53;;
69170;SDS011;56279;47.902;12.308;2022-12-11T02:59:28;25.75;;;11.10;;
69170;SDS011;56279;47.902;12.308;2022-12-11T03:01:34;29.77;;;12.70;;
69170;SDS011;56279;47.902;12.308;2022-12-11T03:03:35;27.65;;;11.23;;
69170;SDS011;56279;47.902;12.308;2022-12-11T03:05:37;25.57;;;10.47;;
69170;SDS011;56279;47.902;12.308;2022-12-11T03:07:40;25.45;;;10.52;;
69170;SDS011;56279;47.902;12.308;2022-12-11T03:09:44;25.08;;;11.68;;
69170;SDS011;56279;47.902;12.308;2022-12-11T03:11:47;21.88;;;10.82;;
69170;SDS011;56279;47.902;12.308;2022-12-11T03:13:48;28.45;;;10.52;;
69170;SDS011;56279;47.902;12.308;2022-12-11T03:17:58;28.20;;;10.80;;
69170;SDS011;56279;47.902;12.308;2022-12-11T03:22:11;18.42;;;7.47;;
69170;SDS011;56279;47.902;12.308;2022-12-11T03:26:45;23.80;;;9.60;;
69170;SDS011;56279;47.902;12.308;2022-12-11T03:28:57;20.88;;;9.40;;
69170;SDS011;56279;47.902;12.308;2022-12-11T03:31:04;22.73;;;10.23;;
69170;SDS011;56279;47.902;12.308;2022-12-11T03:33:10;27.77;;;10.43;;
69170;SDS011;56279;47.902;12.308;2022-12-11T03:37:23;23.63;;;9.60;;
69170;SDS011;56279;47.902;12.308;2022-12-11T03:39:28;24.05;;;10.25;;
69170;SDS011;56279;47.902;12.308;2022-12-11T03:41:33;25.38;;;10.15;;
69170;SDS011;56279;47.902;12.308;2022-12-11T03:43:37;24.83;;;10.05;;
69170;SDS011;56279;47.902;12.308;2022-12-11T03:45:40;26.52;;;11.02;;
69170;SDS011;56279;47.902;12.308;2022-12-11T03:47:43;19.33;;;9.07;;
69170;SDS011;56279;47.902;12.308;2022-12-11T03:49:47;24.50;;;10.07;;
69170;SDS011;56279;47.902;12.308;2022-12-11T03:51:51;13.40;;;6.88;;
69170;SDS011;56279;47.902;12.308;2022-12-11T03:53:56;25.95;;;11.05;;
69170;SDS011;56279;47.902;12.308;2022-12-11T03:55:58;23.55;;;10.40;;
69170;SDS011;56279;47.902;12.308;2022-12-11T03:58:01;21.30;;;10.10;;
69170;SDS011;56279;47.902;12.308;2022-12-11T04:00:04;23.98;;;9.63;;
69170;SDS011;56279;47.902;12.308;2022-12-11T04:02:13;21.33;;;9.70;;
69170;SDS011;56279;47.902;12.308;2022-12-11T04:04:15;20.63;;;9.68;;
69170;SDS011;56279;47.902;12.308;2022-12-11T04:06:16;24.90;;;9.88;;
69170;SDS011;56279;47.902;12.308;2022-12-11T04:08:18;22.40;;;9.03;;
69170;SDS011;56279;47.902;12.308;2022-12-11T04:10:20;19.80;;;9.25;;
69170;SDS011;56279;47.902;12.308;2022-12-11T04:12:21;23.45;;;9.73;;
69170;SDS011;56279;47.902;12.308;2022-12-11T04:14:23;20.35;;;10.32;;
69170;SDS011;56279;47.902;12.308;2022-12-11T04:16:43;23.60;;;9.38;;
69170;SDS011;56279;47.902;12.308;2022-12-11T04:18:44;24.13;;;10.10;;
69170;SDS011;56279;47.902;12.308;2022-12-11T04:21:04;21.05;;;8.45;;
69170;SDS011;56279;47.902;12.308;2022-12-11T04:23:24;17.73;;;8.02;;
69170;SDS011;56279;47.902;12.308;2022-12-11T04:25:44;16.38;;;7.93;;
69170;SDS011;56279;47.902;12.308;2022-12-11T04:27:45;18.73;;;8.77;;
69170;SDS011;56279;47.902;12.308;2022-12-11T04:29:50;22.70;;;9.43;;
69170;SDS011;56279;47.902;12.308;2022-12-11T04:31:51;21.17;;;7.68;;
69170;SDS011;56279;47.902;12.308;2022-12-11T04:33:52;19.17;;;8.82;;
69170;SDS011;56279;47.902;12.308;2022-12-11T04:35:56;18.48;;;8.35;;
69170;SDS011;56279;47.902;12.308;2022-12-11T04:37:58;17.52;;;8.25;;
69170;SDS011;56279;47.902;12.308;2022-12-11T04:39:59;20.63;;;9.10;;
69170;SDS011;56279;47.902;12.308;2022-12-11T04:42:00;23.98;;;9.50;;
69170;SDS011;56279;47.902;12.308;2022-12-11T04:44:02;17.95;;;8.55;;
69170;SDS011;56279;47.902;12.308;2022-12-11T04:46:07;22.48;;;9.45;;
69170;SDS011;56279;47.902;12.308;2022-12-11T04:48:10;24.23;;;9.55;;
69170;SDS011;56279;47.902;12.308;2022-12-11T04:50:11;20.70;;;8.17;;
69170;SDS011;56279;47.902;12.308;2022-12-11T04:52:14;12.55;;;6.05;;
69170;SDS011;56279;47.902;12.308;2022-12-11T04:54:17;22.70;;;9.63;;
69170;SDS011;56279;47.902;12.308;2022-12-11T04:56:19;21.27;;;8.88;;
69170;SDS011;56279;47.902;12.308;2022-12-11T04:58:21;19.52;;;9.60;;
69170;SDS011;56279;47.902;12.308;2022-12-11T05:00:23;21.90;;;9.23;;
69170;SDS011;56279;47.902;12.308;2022-12-11T05:02:24;19.55;;;8.77;;
69170;SDS011;56279;47.902;12.308;2022-12-11T05:04:29;23.75;;;9.05;;
69170;SDS011;56279;47.902;12.308;2022-12-11T05:06:32;22.30;;;9.48;;
69170;SDS011;56279;47.902;12.308;2022-12-11T05:08:33;21.00;;;9.48;;
69170;SDS011;56279;47.902;12.308;2022-12-11T05:10:36;17.17;;;7.63;;
69170;SDS011;56279;47.902;12.308;2022-12-11T05:12:37;16.52;;;7.40;;
69170;SDS011;56279;47.902;12.308;2022-12-11T05:14:38;15.55;;;7.65;;
69170;SDS011;56279;47.902;12.308;2022-12-11T05:16:40;23.38;;;9.13;;
69170;SDS011;56279;47.902;12.308;2022-12-11T05:18:42;21.55;;;9.20;;
69170;SDS011;56279;47.902;12.308;2022-12-11T05:20:43;20.47;;;9.10;;
69170;SDS011;56279;47.902;12.308;2022-12-11T05:22:44;20.67;;;8.68;;
69170;SDS011;56279;47.902;12.308;2022-12-11T05:24:46;19.08;;;8.80;;
69170;SDS011;56279;47.902;12.308;2022-12-11T05:26:47;19.50;;;8.43;;
69170;SDS011;56279;47.902;12.308;2022-12-11T05:28:51;20.92;;;9.35;;
69170;SDS011;56279;47.902;12.308;2022-12-11T05:31:03;20.93;;;8.17;;
69170;SDS011;56279;47.902;12.308;2022-12-11T05:33:11;23.15;;;8.77;;
69170;SDS011;56279;47.902;12.308;2022-12-11T05:35:13;17.23;;;8.13;;
69170;SDS011;56279;47.902;12.308;2022-12-11T05:37:14;19.95;;;8.57;;
69170;SDS011;56279;47.902;12.308;2022-12-11T05:39:15;19.08;;;8.18;;
69170;SDS011;56279;47.902;12.308;2022-12-11T05:41:18;20.87;;;8.87;;
69170;SDS011;56279;47.902;12.308;2022-12-11T05:43:21;19.38;;;8.23;;
69170;SDS011;56279;47.902;12.308;2022-12-11T05:45:22;21.13;;;8.88;;
69170;SDS011;56279;47.902;12.308;2022-12-11T05:47:23;21.98;;;8.40;;
69170;SDS011;56279;47.902;12.308;2022-12-11T05:49:25;19.20;;;9.07;;
69170;SDS011;56279;47.902;12.308;2022-12-11T05:51:26;18.93;;;7.67;;
69170;SDS011;56279;47.902;12.308;2022-12-11T05:53:29;20.70;;;8.20;;
69170;SDS011;56279;47.902;12.308;2022-12-11T05:55:33;19.02;;;8.65;;
69170;SDS011;56279;47.902;12.308;2022-12-11T05:57:35;20.88;;;8.95;;
69170;SDS011;56279;47.902;12.308;2022-12-11T05:59:36;20.05;;;8.95;;
69170;SDS011;56279;47.902;12.308;2022-12-11T06:01:39;17.57;;;9.07;;
69170;SDS011;56279;47.902;12.308;2022-12-11T06:03:41;23.10;;;8.23;;
69170;SDS011;56279;47.902;12.308;2022-12-11T06:05:43;19.65;;;9.07;;
69170;SDS011;56279;47.902;12.308;2022-12-11T06:07:44;20.23;;;8.13;;
69170;SDS011;56279;47.902;12.308;2022-12-11T06:09:45;18.27;;;8.30;;
69170;SDS011;56279;47.902;12.308;2022-12-11T06:11:47;21.57;;;8.60;;
69170;SDS011;56279;47.902;12.308;2022-12-11T06:13:48;20.25;;;8.52;;
69170;SDS011;56279;47.902;12.308;2022-12-11T06:15:50;22.48;;;9.75;;
69170;SDS011;56279;47.902;12.308;2022-12-11T06:17:52;19.80;;;8.27;;
69170;SDS011;56279;47.902;12.308;2022-12-11T06:19:53;21.25;;;8.48;;
69170;SDS011;56279;47.902;12.308;2022-12-11T06:21:54;20.73;;;8.93;;
69170;SDS011;56279;47.902;12.308;2022-12-11T06:23:56;20.45;;;8.30;;
69170;SDS011;56279;47.902;12.308;2022-12-11T06:26:02;17.92;;;8.43;;
69170;SDS011;56279;47.902;12.308;2022-12-11T06:28:03;18.95;;;7.80;;
69170;SDS011;56279;47.902;12.308;2022-12-11T06:30:05;19.20;;;8.68;;
69170;SDS011;56279;47.902;12.308;2022-12-11T06:32:07;18.33;;;7.93;;
69170;SDS011;56279;47.902;12.308;2022-12-11T06:34:10;17.38;;;8.82;;
69170;SDS011;56279;47.902;12.308;2022-12-11T06:36:14;19.15;;;8.68;;
69170;SDS011;56279;47.902;12.308;2022-12-11T06:38:19;18.95;;;8.27;;
69170;SDS011;56279;47.902;12.308;2022-12-11T06:40:21;16.83;;;8.73;;
69170;SDS011;56279;47.902;12.308;2022-12-11T06:42:22;18.23;;;8.13;;
69170;SDS011;56279;47.902;12.308;2022-12-11T06:44:24;17.63;;;7.68;;
69170;SDS011;56279;47.902;12.308;2022-12-11T06:46:25;17.73;;;8.35;;
69170;SDS011;56279;47.902;12.308;2022-12-11T06:48:27;18.38;;;7.82;;
69170;SDS011;56279;47.902;12.308;2022-12-11T06:50:28;19.15;;;7.72;;
69170;SDS011;56279;47.902;12.308;2022-12-11T06:52:29;17.57;;;8.03;;
69170;SDS011;56279;47.902;12.308;2022-12-11T06:54:30;18.67;;;8.35;;
69170;SDS011;56279;47.902;12.308;2022-12-11T06:56:33;18.65;;;8.20;;
69170;SDS011;56279;47.902;12.308;2022-12-11T06:58:34;18.13;;;7.50;;
69170;SDS011;56279;47.902;12.308;2022-12-11T07:00:37;19.75;;;8.15;;
69170;SDS011;56279;47.902;12.308;2022-12-11T07:02:38;18.13;;;7.33;;
69170;SDS011;56279;47.902;12.308;2022-12-11T07:04:40;18.77;;;8.52;;
69170;SDS011;56279;47.902;12.308;2022-12-11T07:06:41;18.75;;;8.68;;
69170;SDS011;56279;47.902;12.308;2022-12-11T07:08:43;17.13;;;7.70;;
69170;SDS011;56279;47.902;12.308;2022-12-11T07:10:45;17.15;;;6.88;;
69170;SDS011;56279;47.902;12.308;2022-12-11T07:12:46;17.93;;;8.13;;
69170;SDS011;56279;47.902;12.308;2022-12-11T07:14:47;16.83;;;7.65;;
69170;SDS011;56279;47.902;12.308;2022-12-11T07:16:48;17.60;;;7.75;;
69170;SDS011;56279;47.902;12.308;2022-12-11T07:18:50;18.25;;;8.13;;
69170;SDS011;56279;47.902;12.308;2022-12-11T07:20:51;19.40;;;8.00;;
69170;SDS011;56279;47.902;12.308;2022-12-11T07:22:53;16.67;;;7.20;;
69170;SDS011;56279;47.902;12.308;2022-12-11T07:24:54;16.58;;;7.20;;
69170;SDS011;56279;47.902;12.308;2022-12-11T07:26:56;20.52;;;8.00;;
69170;SDS011;56279;47.902;12.308;2022-12-11T07:28:57;16.42;;;7.28;;
69170;SDS011;56279;47.902;12.308;2022-12-11T07:31:03;18.63;;;7.57;;
69170;SDS011;56279;47.902;12.308;2022-12-11T07:33:06;17.50;;;7.47;;
69170;SDS011;56279;47.902;12.308;2022-12-11T07:35:07;17.90;;;7.75;;
69170;SDS011;56279;47.902;12.308;2022-12-11T07:37:09;48.63;;;18.38;;
69170;SDS011;56279;47.902;12.308;2022-12-11T07:39:11;19.10;;;7.90;;
69170;SDS011;56279;47.902;12.308;2022-12-11T07:41:13;17.50;;;8.40;;
69170;SDS011;56279;47.902;12.308;2022-12-11T07:43:15;18.63;;;7.33;;
69170;SDS011;56279;47.902;12.308;2022-12-11T07:45:16;17.63;;;7.68;;
69170;SDS011;56279;47.902;12.308;2022-12-11T07:47:17;13.75;;;6.40;;
69170;SDS011;56279;47.902;12.308;2022-12-11T07:49:19;18.90;;;7.22;;
69170;SDS011;56279;47.902;12.308;2022-12-11T07:51:24;15.38;;;7.05;;
69170;SDS011;56279;47.902;12.308;2022-12-11T07:53:27;18.77;;;7.40;;
69170;SDS011;56279;47.902;12.308;2022-12-11T07:55:30;17.40;;;7.20;;
69170;SDS011;56279;47.902;12.308;2022-12-11T07:57:31;18.90;;;7.97;;
69170;SDS011;56279;47.902;12.308;2022-12-11T07:59:33;13.60;;;7.03;;
69170;SDS011;56279;47.902;12.308;2022-12-11T08:01:34;17.85;;;7.55;;
69170;SDS011;56279;47.902;12.308;2022-12-11T08:03:36;16.63;;;7.50;;
69170;SDS011;56279;47.902;12.308;2022-12-11T08:05:37;19.10;;;7.68;;
69170;SDS011;56279;47.902;12.308;2022-12-11T08:07:39;15.80;;;7.13;;
69170;SDS011;56279;47.902;12.308;2022-12-11T08:09:40;18.02;;;7.00;;
69170;SDS011;56279;47.902;12.308;2022-12-11T08:11:42;15.68;;;7.03;;
69170;SDS011;56279;47.902;12.308;2022-12-11T08:13:43;14.97;;;7.37;;
69170;SDS011;56279;47.902;12.308;2022-12-11T08:15:44;18.80;;;8.05;;
69170;SDS011;56279;47.902;12.308;2022-12-11T08:17:45;19.80;;;9.68;;
69170;SDS011;56279;47.902;12.308;2022-12-11T08:19:46;16.95;;;8.07;;
69170;SDS011;56279;47.902;12.308;2022-12-11T08:21:48;16.58;;;6.80;;
69170;SDS011;56279;47.902;12.308;2022-12-11T08:23:50;14.27;;;6.77;;
69170;SDS011;56279;47.902;12.308;2022-12-11T08:25:52;16.73;;;8.02;;
69170;SDS011;56279;47.902;12.308;2022-12-11T08:27:53;20.70;;;8.32;;
69170;SDS011;56279;47.902;12.308;2022-12-11T08:29:55;18.73;;;7.90;;
69170;SDS011;56279;47.902;12.308;2022-12-11T08:31:56;17.30;;;7.65;;
69170;SDS011;56279;47.902;12.308;2022-12-11T08:33:57;15.07;;;7.00;;
69170;SDS011;56279;47.902;12.308;2022-12-11T08:36:01;16.55;;;7.38;;
69170;SDS011;56279;47.902;12.308;2022-12-11T08:38:03;16.13;;;9.25;;
69170;SDS011;56279;47.902;12.308;2022-12-11T08:40:05;16.63;;;6.90;;
69170;SDS011;56279;47.902;12.308;2022-12-11T08:42:07;16.98;;;8.77;;
69170;SDS011;56279;47.902;12.308;2022-12-11T08:44:10;15.30;;;7.47;;
69170;SDS011;56279;47.902;12.308;2022-12-11T08:46:12;14.13;;;7.07;;
69170;SDS011;56279;47.902;12.308;2022-12-11T08:48:15;14.82;;;8.15;;
69170;SDS011;56279;47.902;12.308;2022-12-11T08:50:17;15.85;;;8.55;;
69170;SDS011;56279;47.902;12.308;2022-12-11T08:52:18;20.13;;;8.73;;
69170;SDS011;56279;47.902;12.308;2022-12-11T08:54:19;13.27;;;6.43;;
69170;SDS011;56279;47.902;12.308;2022-12-11T08:56:24;20.13;;;9.48;;
69170;SDS011;56279;47.902;12.308;2022-12-11T08:58:26;17.30;;;7.57;;
69170;SDS011;56279;47.902;12.308;2022-12-11T09:00:27;15.77;;;8.45;;
69170;SDS011;56279;47.902;12.308;2022-12-11T09:02:28;18.33;;;9.00;;
69170;SDS011;56279;47.902;12.308;2022-12-11T09:04:30;16.77;;;8.37;;
69170;SDS011;56279;47.902;12.308;2022-12-11T09:06:31;17.92;;;8.40;;
69170;SDS011;56279;47.902;12.308;2022-12-11T09:08:32;13.15;;;6.40;;
69170;SDS011;56279;47.902;12.308;2022-12-11T09:10:34;15.63;;;7.53;;
69170;SDS011;56279;47.902;12.308;2022-12-11T09:12:35;15.50;;;6.80;;
69170;SDS011;56279;47.902;12.308;2022-12-11T09:14:37;14.57;;;7.20;;
69170;SDS011;56279;47.902;12.308;2022-12-11T09:16:38;12.88;;;6.82;;
69170;SDS011;56279;47.902;12.308;2022-12-11T09:18:43;14.50;;;6.75;;
69170;SDS011;56279;47.902;12.308;2022-12-11T09:20:46;20.60;;;7.75;;
69170;SDS011;56279;47.902;12.308;2022-12-11T09:22:47;20.08;;;7.72;;
69170;SDS011;56279;47.902;12.308;2022-12-11T09:24:48;18.37;;;7.53;;
69170;SDS011;56279;47.902;12.308;2022-12-11T09:26:49;17.73;;;6.90;;
69170;SDS011;56279;47.902;12.308;2022-12-11T09:28:51;15.45;;;7.18;;
69170;SDS011;56279;47.902;12.308;2022-12-11T09:30:53;15.45;;;6.78;;
69170;SDS011;56279;47.902;12.308;2022-12-11T09:32:54;14.00;;;6.32;;
69170;SDS011;56279;47.902;12.308;2022-12-11T09:34:55;16.27;;;6.80;;
69170;SDS011;56279;47.902;12.308;2022-12-11T09:36:56;14.82;;;6.50;;
69170;SDS011;56279;47.902;12.308;2022-12-11T09:39:03;13.38;;;5.90;;
69170;SDS011;56279;47.902;12.308;2022-12-11T09:41:19;14.18;;;6.65;;
69170;SDS011;56279;47.902;12.308;2022-12-11T09:45:46;16.87;;;7.90;;
69170;SDS011;56279;47.902;12.308;2022-12-11T09:47:50;16.20;;;7.40;;
69170;SDS011;56279;47.902;12.308;2022-12-11T09:50:42;16.98;;;7.57;;
69170;SDS011;56279;47.902;12.308;2022-12-11T09:52:34;16.95;;;7.40;;
69170;SDS011;56279;47.902;12.308;2022-12-11T09:54:57;15.13;;;6.63;;
69170;SDS011;56279;47.902;12.308;2022-12-11T09:57:08;14.47;;;6.73;;
69170;SDS011;56279;47.902;12.308;2022-12-11T09:59:34;15.55;;;7.43;;
69170;SDS011;56279;47.902;12.308;2022-12-11T10:04:56;14.25;;;6.90;;
69170;SDS011;56279;47.902;12.308;2022-12-11T10:12:28;19.58;;;8.10;;
69170;SDS011;56279;47.902;12.308;2022-12-11T10:14:37;15.95;;;7.55;;
69170;SDS011;56279;47.902;12.308;2022-12-11T10:16:46;20.30;;;8.60;;
69170;SDS011;56279;47.902;12.308;2022-12-11T10:18:50;21.23;;;9.00;;
69170;SDS011;56279;47.902;12.308;2022-12-11T10:20:53;19.30;;;8.20;;
69170;SDS011;56279;47.902;12.308;2022-12-11T10:22:54;17.88;;;8.30;;
69170;SDS011;56279;47.902;12.308;2022-12-11T10:24:59;18.15;;;8.55;;
69170;SDS011;56279;47.902;12.308;2022-12-11T10:27:37;16.95;;;8.07;;
69170;SDS011;56279;47.902;12.308;2022-12-11T10:29:32;15.77;;;7.47;;
69170;SDS011;56279;47.902;12.308;2022-12-11T10:31:40;16.33;;;8.20;;
69170;SDS011;56279;47.902;12.308;2022-12-11T10:35:57;13.75;;;6.55;;
69170;SDS011;56279;47.902;12.308;2022-12-11T10:40:12;16.27;;;8.02;;
69170;SDS011;56279;47.902;12.308;2022-12-11T10:42:19;13.37;;;6.27;;
69170;SDS011;56279;47.902;12.308;2022-12-11T10:44:23;16.75;;;7.60;;
69170;SDS011;56279;47.902;12.308;2022-12-11T10:46:29;16.35;;;8.55;;
69170;SDS011;56279;47.902;12.308;2022-12-11T10:48:32;13.75;;;7.13;;
69170;SDS011;56279;47.902;12.308;2022-12-11T10:50:34;19.00;;;7.90;;
69170;SDS011;56279;47.902;12.308;2022-12-11T10:52:36;16.07;;;6.57;;
69170;SDS011;56279;47.902;12.308;2022-12-11T10:54:42;16.52;;;7.75;;
69170;SDS011;56279;47.902;12.308;2022-12-11T10:56:47;16.30;;;6.90;;
69170;SDS011;56279;47.902;12.308;2022-12-11T10:58:49;17.63;;;7.57;;
69170;SDS011;56279;47.902;12.308;2022-12-11T11:03:23;16.77;;;7.03;;
69170;SDS011;56279;47.902;12.308;2022-12-11T11:05:36;16.88;;;7.82;;
69170;SDS011;56279;47.902;12.308;2022-12-11T11:07:37;18.08;;;8.40;;
69170;SDS011;56279;47.902;12.308;2022-12-11T11:09:40;17.40;;;9.40;;
69170;SDS011;56279;47.902;12.308;2022-12-11T11:11:48;21.60;;;9.27;;
69170;SDS011;56279;47.902;12.308;2022-12-11T11:13:50;16.73;;;7.03;;
69170;SDS011;56279;47.902;12.308;2022-12-11T11:15:59;15.82;;;7.20;;
69170;SDS011;56279;47.902;12.308;2022-12-11T11:18:10;18.02;;;8.75;;
69170;SDS011;56279;47.902;12.308;2022-12-11T11:20:17;16.70;;;8.35;;
69170;SDS011;56279;47.902;12.308;2022-12-11T11:22:20;20.38;;;8.95;;
69170;SDS011;56279;47.902;12.308;2022-12-11T11:25:04;18.90;;;8.70;;
69170;SDS011;56279;47.902;12.308;2022-12-11T11:26:57;32.88;;;13.63;;
69170;SDS011;56279;47.902;12.308;2022-12-11T11:28:58;15.77;;;8.95;;
69170;SDS011;56279;47.902;12.308;2022-12-11T11:31:04;20.15;;;9.50;;
69170;SDS011;56279;47.902;12.308;2022-12-11T11:33:17;18.73;;;7.30;;
69170;SDS011;56279;47.902;12.308;2022-12-11T11:35:21;16.00;;;8.00;;
69170;SDS011;56279;47.902;12.308;2022-12-11T11:37:32;28.90;;;11.50;;
69170;SDS011;56279;47.902;12.308;2022-12-11T11:39:34;22.95;;;9.32;;
69170;SDS011;56279;47.902;12.308;2022-12-11T11:42:24;18.30;;;8.95;;
69170;SDS011;56279;47.902;12.308;2022-12-11T11:44:18;14.65;;;7.63;;
69170;SDS011;56279;47.902;12.308;2022-12-11T11:46:37;18.93;;;8.57;;
69170;SDS011;56279;47.902;12.308;2022-12-11T11:48:48;16.40;;;7.53;;
69170;SDS011;56279;47.902;12.308;2022-12-11T11:50:58;19.15;;;7.70;;
69170;SDS011;56279;47.902;12.308;2022-12-11T11:56:06;20.05;;;8.85;;
69170;SDS011;56279;47.902;12.308;2022-12-11T12:00:22;17.48;;;8.30;;
69170;SDS011;56279;47.902;12.308;2022-12-11T12:02:26;18.40;;;8.00;;
69170;SDS011;56279;47.902;12.308;2022-12-11T12:04:31;18.13;;;8.90;;
69170;SDS011;56279;47.902;12.308;2022-12-11T12:06:43;17.00;;;7.45;;
69170;SDS011;56279;47.902;12.308;2022-12-11T12:11:30;16.42;;;7.80;;
69170;SDS011;56279;47.902;12.308;2022-12-11T12:13:38;19.70;;;8.40;;
69170;SDS011;56279;47.902;12.308;2022-12-11T12:15:56;17.63;;;7.85;;
69170;SDS011;56279;47.902;12.308;2022-12-11T12:18:06;17.48;;;7.28;;
69170;SDS011;56279;47.902;12.308;2022-12-11T12:20:27;18.37;;;7.67;;
69170;SDS011;56279;47.902;12.308;2022-12-11T12:24:50;16.88;;;7.70;;
69170;SDS011;56279;47.902;12.308;2022-12-11T12:29:11;16.52;;;7.32;;
69170;SDS011;56279;47.902;12.308;2022-12-11T12:33:50;14.75;;;7.53;;
69170;SDS011;56279;47.902;12.308;2022-12-11T12:38:52;17.58;;;7.28;;
69170;SDS011;56279;47.902;12.308;2022-12-11T12:46:23;14.30;;;6.88;;
69170;SDS011;56279;47.902;12.308;2022-12-11T12:48:30;16.88;;;8.15;;
69170;SDS011;56279;47.902;12.308;2022-12-11T12:50:36;16.67;;;7.43;;
69170;SDS011;56279;47.902;12.308;2022-12-11T12:52:43;15.40;;;6.57;;
69170;SDS011;56279;47.902;12.308;2022-12-11T12:54:47;15.23;;;7.33;;
69170;SDS011;56279;47.902;12.308;2022-12-11T12:57:11;12.38;;;6.70;;
69170;SDS011;56279;47.902;12.308;2022-12-11T12:59:19;15.40;;;8.27;;
69170;SDS011;56279;47.902;12.308;2022-12-11T13:01:26;14.55;;;7.35;;
69170;SDS011;56279;47.902;12.308;2022-12-11T13:03:30;14.32;;;7.80;;
69170;SDS011;56279;47.902;12.308;2022-12-11T13:05:35;17.47;;;8.53;;
69170;SDS011;56279;47.902;12.308;2022-12-11T13:07:37;15.80;;;7.10;;
69170;SDS011;56279;47.902;12.308;2022-12-11T13:09:59;16.05;;;7.78;;